sensor_id;sensor_type;location;lat;lon;timestamp;pressure;altitude;pressure_sealevel;temperature;humidity
1207;BME280;593;53.184;8.216;2023-11-19T00:00:34;100256.69;;;9.48;100.00
1207;BME280;593;53.184;8.216;2023-11-19T00:03:00;100248.78;;;9.51;100.00
1207;BME280;593;53.184;8.216;2023-11-19T00:05:26;100236.31;;;9.50;100.00
1207;BME280;593;53.184;8.216;2023-11-19T00:07:53;100230.00;;;9.55;100.00
1207;BME280;593;53.184;8.216;2023-11-19T00:10:19;100224.00;;;9.58;100.00
1207;BME280;593;53.184;8.216;2023-11-19T00:12:46;100223.44;;;9.61;100.00
1207;BME280;593;53.184;8.216;2023-11-19T00:15:16;100228.56;;;9.62;100.00
1207;BME280;593;53.184;8.216;2023-11-19T00:17:46;100218.53;;;9.63;100.00
1207;BME280;593;53.184;8.216;2023-11-19T00:20:13;100221.50;;;9.66;100.00
1207;BME280;593;53.184;8.216;2023-11-19T00:22:40;100223.66;;;9.64;100.00
1207;BME280;593;53.184;8.216;2023-11-19T00:25:07;100217.09;;;9.71;100.00
1207;BME280;593;53.184;8.216;2023-11-19T00:27:36;100215.72;;;9.73;100.00
1207;BME280;593;53.184;8.216;2023-11-19T00:30:04;100223.28;;;9.76;100.00
1207;BME280;593;53.184;8.216;2023-11-19T00:32:31;100221.59;;;9.80;100.00
1207;BME280;593;53.184;8.216;2023-11-19T00:34:57;100212.38;;;9.81;100.00
1207;BME280;593;53.184;8.216;2023-11-19T00:37:22;100196.88;;;9.82;100.00
1207;BME280;593;53.184;8.216;2023-11-19T00:39:48;100190.84;;;9.85;100.00
1207;BME280;593;53.184;8.216;2023-11-19T00:42:14;100192.19;;;9.87;100.00
1207;BME280;593;53.184;8.216;2023-11-19T00:44:40;100186.47;;;9.89;100.00
1207;BME280;593;53.184;8.216;2023-11-19T00:47:06;100176.94;;;9.91;100.00
1207;BME280;593;53.184;8.216;2023-11-19T00:49:32;100170.94;;;9.94;100.00
1207;BME280;593;53.184;8.216;2023-11-19T00:51:58;100164.91;;;9.97;100.00
1207;BME280;593;53.184;8.216;2023-11-19T00:54:24;100164.31;;;10.00;100.00
1207;BME280;593;53.184;8.216;2023-11-19T00:56:52;100159.41;;;10.02;100.00
1207;BME280;593;53.184;8.216;2023-11-19T00:59:20;100143.34;;;10.06;100.00
1207;BME280;593;53.184;8.216;2023-11-19T01:01:46;100140.88;;;10.09;100.00
1207;BME280;593;53.184;8.216;2023-11-19T01:04:19;100142.22;;;10.12;100.00
1207;BME280;593;53.184;8.216;2023-11-19T01:06:44;100150.88;;;10.14;100.00
1207;BME280;593;53.184;8.216;2023-11-19T01:09:10;100150.88;;;10.14;100.00
1207;BME280;593;53.184;8.216;2023-11-19T01:11:35;100140.22;;;10.17;100.00
1207;BME280;593;53.184;8.216;2023-11-19T01:14:01;100132.59;;;10.19;100.00
1207;BME280;593;53.184;8.216;2023-11-19T01:16:27;100129.06;;;10.19;100.00
1207;BME280;593;53.184;8.216;2023-11-19T01:18:52;100131.41;;;10.25;100.00
1207;BME280;593;53.184;8.216;2023-11-19T01:21:18;100127.31;;;10.28;100.00
1207;BME280;593;53.184;8.216;2023-11-19T01:23:43;100129.22;;;10.27;100.00
1207;BME280;593;53.184;8.216;2023-11-19T01:26:12;100128.03;;;10.34;100.00
1207;BME280;593;53.184;8.216;2023-11-19T01:28:39;100115.47;;;10.38;100.00
1207;BME280;593;53.184;8.216;2023-11-19T01:31:05;100115.19;;;10.39;100.00
1207;BME280;593;53.184;8.216;2023-11-19T01:33:30;100109.16;;;10.42;100.00
1207;BME280;593;53.184;8.216;2023-11-19T01:35:56;100102.63;;;10.43;100.00
1207;BME280;593;53.184;8.216;2023-11-19T01:38:24;100095.88;;;10.41;100.00
1207;BME280;593;53.184;8.216;2023-11-19T01:40:49;100098.72;;;10.49;100.00
1207;BME280;593;53.184;8.216;2023-11-19T01:43:34;100110.94;;;10.52;100.00
1207;BME280;593;53.184;8.216;2023-11-19T01:46:01;100087.78;;;10.54;100.00
1207;BME280;593;53.184;8.216;2023-11-19T01:48:29;100094.44;;;10.62;100.00
1207;BME280;593;53.184;8.216;2023-11-19T01:50:56;100085.19;;;10.63;100.00
1207;BME280;593;53.184;8.216;2023-11-19T01:53:22;100081.06;;;10.65;100.00
1207;BME280;593;53.184;8.216;2023-11-19T01:55:48;100069.91;;;10.67;100.00
1207;BME280;593;53.184;8.216;2023-11-19T01:58:15;100084.50;;;10.71;100.00
1207;BME280;593;53.184;8.216;2023-11-19T02:00:41;100064.88;;;10.74;100.00
1207;BME280;593;53.184;8.216;2023-11-19T02:03:07;100074.34;;;10.76;100.00
1207;BME280;593;53.184;8.216;2023-11-19T02:05:34;100057.22;;;10.76;100.00
1207;BME280;593;53.184;8.216;2023-11-19T02:08:00;100058.75;;;10.82;100.00
1207;BME280;593;53.184;8.216;2023-11-19T02:10:26;100060.84;;;10.85;100.00
1207;BME280;593;53.184;8.216;2023-11-19T02:12:52;100064.09;;;10.87;100.00
1207;BME280;593;53.184;8.216;2023-11-19T02:15:17;100060.75;;;10.90;100.00
1207;BME280;593;53.184;8.216;2023-11-19T02:17:50;100062.09;;;10.92;100.00
1207;BME280;593;53.184;8.216;2023-11-19T02:20:16;100060.19;;;10.93;100.00
1207;BME280;593;53.184;8.216;2023-11-19T02:22:42;100056.28;;;10.99;100.00
1207;BME280;593;53.184;8.216;2023-11-19T02:25:12;100054.84;;;11.02;100.00
1207;BME280;593;53.184;8.216;2023-11-19T02:27:57;100057.78;;;11.05;100.00
1207;BME280;593;53.184;8.216;2023-11-19T02:30:24;100041.44;;;11.05;100.00
1207;BME280;593;53.184;8.216;2023-11-19T02:32:55;100045.69;;;11.11;100.00
1207;BME280;593;53.184;8.216;2023-11-19T02:35:26;100040.75;;;11.13;100.00
1207;BME280;593;53.184;8.216;2023-11-19T02:37:52;100036.63;;;11.16;100.00
1207;BME280;593;53.184;8.216;2023-11-19T02:40:17;100033.00;;;11.20;100.00
1207;BME280;593;53.184;8.216;2023-11-19T02:42:43;100028.03;;;11.22;100.00
1207;BME280;593;53.184;8.216;2023-11-19T02:45:09;100025.84;;;11.24;100.00
1207;BME280;593;53.184;8.216;2023-11-19T02:47:42;100010.00;;;11.26;100.00
1207;BME280;593;53.184;8.216;2023-11-19T02:50:11;100011.00;;;11.30;100.00
1207;BME280;593;53.184;8.216;2023-11-19T02:52:46;100009.59;;;11.33;100.00
1207;BME280;593;53.184;8.216;2023-11-19T02:55:11;100011.41;;;11.37;100.00
1207;BME280;593;53.184;8.216;2023-11-19T02:57:40;100005.69;;;11.39;100.00
1207;BME280;593;53.184;8.216;2023-11-19T03:00:17;100000.41;;;11.42;100.00
1207;BME280;593;53.184;8.216;2023-11-19T03:02:44;99994.69;;;11.44;100.00
1207;BME280;593;53.184;8.216;2023-11-19T03:05:12;100003.03;;;11.47;100.00
1207;BME280;593;53.184;8.216;2023-11-19T03:07:41;100006.28;;;11.49;100.00
1207;BME280;593;53.184;8.216;2023-11-19T03:10:08;100011.72;;;11.49;100.00
1207;BME280;593;53.184;8.216;2023-11-19T03:12:34;100010.31;;;11.52;100.00
1207;BME280;593;53.184;8.216;2023-11-19T03:15:00;100013.53;;;11.54;100.00
1207;BME280;593;53.184;8.216;2023-11-19T03:17:26;100012.13;;;11.56;100.00
1207;BME280;593;53.184;8.216;2023-11-19T03:19:51;100007.16;;;11.58;100.00
1207;BME280;593;53.184;8.216;2023-11-19T03:22:17;100012.81;;;11.62;100.00
1207;BME280;593;53.184;8.216;2023-11-19T03:24:42;99995.28;;;11.54;100.00
1207;BME280;593;53.184;8.216;2023-11-19T03:27:07;100006.72;;;11.65;100.00
1207;BME280;593;53.184;8.216;2023-11-19T03:29:33;100005.06;;;11.69;100.00
1207;BME280;593;53.184;8.216;2023-11-19T03:32:04;100000.72;;;11.68;100.00
1207;BME280;593;53.184;8.216;2023-11-19T03:34:30;99999.00;;;11.72;100.00
1207;BME280;593;53.184;8.216;2023-11-19T03:36:55;99996.28;;;11.72;100.00
1207;BME280;593;53.184;8.216;2023-11-19T03:39:22;99989.91;;;11.77;100.00
1207;BME280;593;53.184;8.216;2023-11-19T03:41:50;99986.06;;;11.78;100.00
1207;BME280;593;53.184;8.216;2023-11-19T03:44:15;99985.78;;;11.79;100.00
1207;BME280;593;53.184;8.216;2023-11-19T03:46:41;99975.69;;;11.80;100.00
1207;BME280;593;53.184;8.216;2023-11-19T03:49:07;99977.28;;;11.81;100.00
1207;BME280;593;53.184;8.216;2023-11-19T03:51:32;99986.16;;;11.86;100.00
1207;BME280;593;53.184;8.216;2023-11-19T03:53:57;99975.56;;;11.85;100.00
1207;BME280;593;53.184;8.216;2023-11-19T03:56:24;99983.09;;;11.88;100.00
1207;BME280;593;53.184;8.216;2023-11-19T03:58:49;99984.72;;;11.89;100.00
1207;BME280;593;53.184;8.216;2023-11-19T04:01:15;99982.50;;;11.91;100.00
1207;BME280;593;53.184;8.216;2023-11-19T04:03:40;99983.31;;;11.91;100.00
1207;BME280;593;53.184;8.216;2023-11-19T04:06:06;99970.41;;;11.83;100.00
1207;BME280;593;53.184;8.216;2023-11-19T04:08:33;99981.28;;;11.97;100.00
1207;BME280;593;53.184;8.216;2023-11-19T04:10:58;99979.84;;;11.99;100.00
1207;BME280;593;53.184;8.216;2023-11-19T04:13:23;99980.66;;;12.00;100.00
1207;BME280;593;53.184;8.216;2023-11-19T04:15:49;99978.09;;;12.03;100.00
1207;BME280;593;53.184;8.216;2023-11-19T04:18:15;99970.13;;;12.07;100.00
1207;BME280;593;53.184;8.216;2023-11-19T04:20:41;99973.16;;;12.05;100.00
1207;BME280;593;53.184;8.216;2023-11-19T04:23:08;99966.28;;;12.08;100.00
1207;BME280;593;53.184;8.216;2023-11-19T04:25:35;99961.03;;;12.11;100.00
1207;BME280;593;53.184;8.216;2023-11-19T04:28:00;99962.31;;;12.14;100.00
1207;BME280;593;53.184;8.216;2023-11-19T04:30:26;99953.81;;;12.15;100.00
1207;BME280;593;53.184;8.216;2023-11-19T04:32:51;99963.63;;;12.16;100.00
1207;BME280;593;53.184;8.216;2023-11-19T04:35:19;99952.41;;;12.18;100.00
1207;BME280;593;53.184;8.216;2023-11-19T04:37:48;99954.03;;;12.19;100.00
1207;BME280;593;53.184;8.216;2023-11-19T04:40:14;99948.56;;;12.19;100.00
1207;BME280;593;53.184;8.216;2023-11-19T04:42:39;99948.25;;;12.20;100.00
1207;BME280;593;53.184;8.216;2023-11-19T04:45:08;99945.22;;;12.22;100.00
1207;BME280;593;53.184;8.216;2023-11-19T04:47:35;99948.25;;;12.20;100.00
1207;BME280;593;53.184;8.216;2023-11-19T04:50:02;99947.94;;;12.22;100.00
1207;BME280;593;53.184;8.216;2023-11-19T04:52:27;99940.06;;;12.20;100.00
1207;BME280;593;53.184;8.216;2023-11-19T04:54:52;99950.34;;;12.23;100.00
1207;BME280;593;53.184;8.216;2023-11-19T04:57:18;99952.28;;;12.23;100.00
1207;BME280;593;53.184;8.216;2023-11-19T04:59:43;99944.91;;;12.23;100.00
1207;BME280;593;53.184;8.216;2023-11-19T05:02:09;99946.00;;;12.22;100.00
1207;BME280;593;53.184;8.216;2023-11-19T05:04:34;99938.34;;;12.25;100.00
1207;BME280;593;53.184;8.216;2023-11-19T05:07:00;99946.53;;;12.25;100.00
1207;BME280;593;53.184;8.216;2023-11-19T05:09:26;99928.06;;;12.21;100.00
1207;BME280;593;53.184;8.216;2023-11-19T05:11:51;99936.41;;;12.25;100.00
1207;BME280;593;53.184;8.216;2023-11-19T05:14:17;99936.09;;;12.27;100.00
1207;BME280;593;53.184;8.216;2023-11-19T05:16:44;99936.59;;;12.29;100.00
1207;BME280;593;53.184;8.216;2023-11-19T05:19:10;99940.94;;;12.30;100.00
1207;BME280;593;53.184;8.216;2023-11-19T05:21:35;99949.91;;;12.30;100.00
1207;BME280;593;53.184;8.216;2023-11-19T05:24:02;99943.97;;;12.28;100.00
1207;BME280;593;53.184;8.216;2023-11-19T05:26:30;99939.81;;;12.31;100.00
1207;BME280;593;53.184;8.216;2023-11-19T05:28:55;99947.69;;;12.32;100.00
1207;BME280;593;53.184;8.216;2023-11-19T05:31:20;99958.28;;;12.34;100.00
1207;BME280;593;53.184;8.216;2023-11-19T05:33:46;99956.16;;;12.31;100.00
1207;BME280;593;53.184;8.216;2023-11-19T05:36:12;99950.91;;;12.34;100.00
1207;BME280;593;53.184;8.216;2023-11-19T05:38:38;99957.19;;;12.35;100.00
1207;BME280;593;53.184;8.216;2023-11-19T05:41:04;99953.44;;;12.31;100.00
1207;BME280;593;53.184;8.216;2023-11-19T05:43:34;99959.91;;;12.35;100.00
1207;BME280;593;53.184;8.216;2023-11-19T05:46:08;99961.50;;;12.36;100.00
1207;BME280;593;53.184;8.216;2023-11-19T05:48:34;99955.22;;;12.35;100.00
1207;BME280;593;53.184;8.216;2023-11-19T05:50:59;99960.69;;;12.35;100.00
1207;BME280;593;53.184;8.216;2023-11-19T05:53:25;99963.13;;;12.37;100.00
1207;BME280;593;53.184;8.216;2023-11-19T05:55:54;99964.84;;;12.33;100.00
1207;BME280;593;53.184;8.216;2023-11-19T05:58:26;99970.81;;;12.35;100.00
1207;BME280;593;53.184;8.216;2023-11-19T06:00:53;99963.13;;;12.37;100.00
1207;BME280;593;53.184;8.216;2023-11-19T06:03:18;99970.81;;;12.35;100.00
1207;BME280;593;53.184;8.216;2023-11-19T06:05:45;99975.63;;;12.38;100.00
1207;BME280;593;53.184;8.216;2023-11-19T06:08:11;99980.78;;;12.39;100.00
1207;BME280;593;53.184;8.216;2023-11-19T06:10:39;99974.84;;;12.37;100.00
1207;BME280;593;53.184;8.216;2023-11-19T06:13:04;99972.59;;;12.39;100.00
1207;BME280;593;53.184;8.216;2023-11-19T06:15:30;99978.88;;;12.40;100.00
1207;BME280;593;53.184;8.216;2023-11-19T06:17:56;99977.84;;;12.36;100.00
1207;BME280;593;53.184;8.216;2023-11-19T06:20:25;99973.41;;;12.40;100.00
1207;BME280;593;53.184;8.216;2023-11-19T06:22:50;99975.00;;;12.41;100.00
1207;BME280;593;53.184;8.216;2023-11-19T06:25:16;99972.13;;;12.37;100.00
1207;BME280;593;53.184;8.216;2023-11-19T06:27:44;99968.75;;;12.40;100.00
1207;BME280;593;53.184;8.216;2023-11-19T06:30:10;99970.38;;;12.41;100.00
1207;BME280;593;53.184;8.216;2023-11-19T06:32:37;99980.47;;;12.41;100.00
1207;BME280;593;53.184;8.216;2023-11-19T06:35:03;99977.72;;;12.41;100.00
1207;BME280;593;53.184;8.216;2023-11-19T06:37:30;99976.63;;;12.42;100.00
1207;BME280;593;53.184;8.216;2023-11-19T06:39:56;99976.63;;;12.42;100.00
1207;BME280;593;53.184;8.216;2023-11-19T06:42:21;99987.53;;;12.42;100.00
1207;BME280;593;53.184;8.216;2023-11-19T06:44:47;99977.44;;;12.42;100.00
1207;BME280;593;53.184;8.216;2023-11-19T06:47:13;99984.81;;;12.42;100.00
1207;BME280;593;53.184;8.216;2023-11-19T06:49:38;99990.56;;;12.40;100.00
1207;BME280;593;53.184;8.216;2023-11-19T06:52:04;99990.56;;;12.40;100.00
1207;BME280;593;53.184;8.216;2023-11-19T06:54:30;99984.31;;;12.40;100.00
1207;BME280;593;53.184;8.216;2023-11-19T06:56:56;99978.88;;;12.40;100.00
1207;BME280;593;53.184;8.216;2023-11-19T06:59:24;99989.09;;;12.34;100.00
1207;BME280;593;53.184;8.216;2023-11-19T07:01:49;99997.16;;;12.39;100.00
1207;BME280;593;53.184;8.216;2023-11-19T07:04:15;99984.63;;;12.38;100.00
1207;BME280;593;53.184;8.216;2023-11-19T07:06:40;99992.78;;;12.38;100.00
1207;BME280;593;53.184;8.216;2023-11-19T07:09:08;99997.75;;;12.36;100.00
1207;BME280;593;53.184;8.216;2023-11-19T07:11:40;100009.28;;;12.33;100.00
1207;BME280;593;53.184;8.216;2023-11-19T07:14:07;100006.25;;;12.35;100.00
1207;BME280;593;53.184;8.216;2023-11-19T07:16:33;100010.59;;;12.36;100.00
1207;BME280;593;53.184;8.216;2023-11-19T07:19:05;100002.41;;;12.36;100.00
1207;BME280;593;53.184;8.216;2023-11-19T07:21:31;99998.38;;;12.33;100.00
1207;BME280;593;53.184;8.216;2023-11-19T07:23:58;100011.41;;;12.36;100.00
1207;BME280;593;53.184;8.216;2023-11-19T07:26:23;99998.88;;;12.35;100.00
1207;BME280;593;53.184;8.216;2023-11-19T07:28:49;100014.44;;;12.35;100.00
1207;BME280;593;53.184;8.216;2023-11-19T07:31:15;100015.22;;;12.35;100.00
1207;BME280;593;53.184;8.216;2023-11-19T07:33:40;100013.63;;;12.34;100.00
1207;BME280;593;53.184;8.216;2023-11-19T07:36:09;100012.00;;;12.33;100.00
1207;BME280;593;53.184;8.216;2023-11-19T07:38:35;100014.44;;;12.35;100.00
1207;BME280;593;53.184;8.216;2023-11-19T07:41:01;100012.81;;;12.34;100.00
1207;BME280;593;53.184;8.216;2023-11-19T07:43:26;100015.06;;;12.32;100.00
1207;BME280;593;53.184;8.216;2023-11-19T07:45:52;100017.47;;;12.33;100.00
1207;BME280;593;53.184;8.216;2023-11-19T07:48:20;100019.38;;;12.33;100.00
1207;BME280;593;53.184;8.216;2023-11-19T07:50:52;100033.81;;;12.33;100.00
1207;BME280;593;53.184;8.216;2023-11-19T07:53:18;100024.84;;;12.33;100.00
1207;BME280;593;53.184;8.216;2023-11-19T07:55:43;100036.25;;;12.35;100.00
1207;BME280;593;53.184;8.216;2023-11-19T07:58:10;100029.50;;;12.32;100.00
1207;BME280;593;53.184;8.216;2023-11-19T08:00:36;100026.78;;;12.32;100.00
1207;BME280;593;53.184;8.216;2023-11-19T08:03:02;100037.69;;;12.32;100.00
1207;BME280;593;53.184;8.216;2023-11-19T08:05:28;100046.34;;;12.34;100.00
1207;BME280;593;53.184;8.216;2023-11-19T08:07:53;100053.22;;;12.32;100.00
1207;BME280;593;53.184;8.216;2023-11-19T08:10:19;100054.53;;;12.34;100.00
1207;BME280;593;53.184;8.216;2023-11-19T08:12:45;100059.19;;;12.34;100.00
1207;BME280;593;53.184;8.216;2023-11-19T08:15:11;100052.63;;;12.35;100.00
1207;BME280;593;53.184;8.216;2023-11-19T08:17:37;100048.28;;;12.34;100.00
1207;BME280;593;53.184;8.216;2023-11-19T08:20:02;100058.06;;;12.35;100.00
1207;BME280;593;53.184;8.216;2023-11-19T08:22:30;100053.66;;;12.25;100.00
1207;BME280;593;53.184;8.216;2023-11-19T08:24:55;100059.69;;;12.36;100.00
1207;BME280;593;53.184;8.216;2023-11-19T08:27:21;100029.06;;;12.16;100.00
1207;BME280;593;53.184;8.216;2023-11-19T08:29:53;100065.94;;;12.36;100.00
1207;BME280;593;53.184;8.216;2023-11-19T08:32:19;100074.13;;;12.36;100.00
1207;BME280;593;53.184;8.216;2023-11-19T08:34:44;100067.56;;;12.37;100.00
1207;BME280;593;53.184;8.216;2023-11-19T08:37:09;100079.25;;;12.38;100.00
1207;BME280;593;53.184;8.216;2023-11-19T08:39:35;100062.59;;;12.39;100.00
1207;BME280;593;53.184;8.216;2023-11-19T08:42:03;100060.00;;;12.34;100.00
1207;BME280;593;53.184;8.216;2023-11-19T08:44:28;100069.66;;;12.40;100.00
1207;BME280;593;53.184;8.216;2023-11-19T08:46:53;100073.19;;;12.41;100.00
1207;BME280;593;53.184;8.216;2023-11-19T08:49:19;100069.66;;;12.40;100.00
1207;BME280;593;53.184;8.216;2023-11-19T08:51:44;100074.81;;;12.42;100.00
1207;BME280;593;53.184;8.216;2023-11-19T08:54:10;100074.50;;;12.43;100.00
1207;BME280;593;53.184;8.216;2023-11-19T08:56:36;100074.19;;;12.45;100.00
1207;BME280;593;53.184;8.216;2023-11-19T08:59:01;100082.06;;;12.46;100.00
1207;BME280;593;53.184;8.216;2023-11-19T09:01:27;100085.28;;;12.48;100.00
1207;BME280;593;53.184;8.216;2023-11-19T09:03:53;100088.50;;;12.50;100.00
1207;BME280;593;53.184;8.216;2023-11-19T09:06:19;100081.13;;;12.51;100.00
1207;BME280;593;53.184;8.216;2023-11-19T09:08:44;100080.84;;;12.52;100.00
1207;BME280;593;53.184;8.216;2023-11-19T09:11:09;100077.31;;;12.52;100.00
1207;BME280;593;53.184;8.216;2023-11-19T09:13:36;100087.88;;;12.53;100.00
1207;BME280;593;53.184;8.216;2023-11-19T09:16:01;100088.69;;;12.54;100.00
1207;BME280;593;53.184;8.216;2023-11-19T09:18:30;100094.66;;;12.56;100.00
1207;BME280;593;53.184;8.216;2023-11-19T09:20:57;100076.81;;;12.50;100.00
1207;BME280;593;53.184;8.216;2023-11-19T09:23:22;100093.22;;;12.58;100.00
1207;BME280;593;53.184;8.216;2023-11-19T09:25:49;100095.94;;;12.58;100.00
1207;BME280;593;53.184;8.216;2023-11-19T09:28:15;100095.84;;;12.63;100.00
1207;BME280;593;53.184;8.216;2023-11-19T09:30:40;100090.69;;;12.62;100.00
1207;BME280;593;53.184;8.216;2023-11-19T09:33:05;100095.84;;;12.63;100.00
1207;BME280;593;53.184;8.216;2023-11-19T09:35:31;100085.41;;;12.65;100.00
1207;BME280;593;53.184;8.216;2023-11-19T09:37:56;100090.09;;;12.65;100.00
1207;BME280;593;53.184;8.216;2023-11-19T09:40:22;100092.97;;;12.68;100.00
1207;BME280;593;53.184;8.216;2023-11-19T09:42:47;100093.59;;;12.65;100.00
1207;BME280;593;53.184;8.216;2023-11-19T09:45:15;100105.81;;;12.68;100.00
1207;BME280;593;53.184;8.216;2023-11-19T09:47:45;100101.97;;;12.69;100.00
1207;BME280;593;53.184;8.216;2023-11-19T09:50:18;100109.06;;;12.70;100.00
1207;BME280;593;53.184;8.216;2023-11-19T09:52:44;100102.59;;;12.66;100.00
1207;BME280;593;53.184;8.216;2023-11-19T09:55:10;100107.13;;;12.70;100.00
1207;BME280;593;53.184;8.216;2023-11-19T09:57:38;100103.41;;;12.66;100.00
1207;BME280;593;53.184;8.216;2023-11-19T10:00:04;100110.97;;;12.69;100.00
1207;BME280;593;53.184;8.216;2023-11-19T10:02:33;100106.13;;;12.66;100.00
1207;BME280;593;53.184;8.216;2023-11-19T10:05:11;100122.38;;;12.71;100.00
1207;BME280;593;53.184;8.216;2023-11-19T10:07:38;100119.34;;;12.73;100.00
1207;BME280;593;53.184;8.216;2023-11-19T10:10:04;100117.41;;;12.73;100.00
1207;BME280;593;53.184;8.216;2023-11-19T10:12:30;100113.88;;;12.73;100.00
1207;BME280;593;53.184;8.216;2023-11-19T10:14:56;100118.22;;;12.74;100.00
1207;BME280;593;53.184;8.216;2023-11-19T10:17:36;100110.66;;;12.71;100.00
1207;BME280;593;53.184;8.216;2023-11-19T10:20:01;100115.19;;;12.75;100.00
1207;BME280;593;53.184;8.216;2023-11-19T10:22:36;100111.66;;;12.75;100.00
1207;BME280;593;53.184;8.216;2023-11-19T10:25:02;100112.44;;;12.75;100.00
1207;BME280;593;53.184;8.216;2023-11-19T10:27:28;100108.13;;;12.74;100.00
1207;BME280;593;53.184;8.216;2023-11-19T10:29:53;100105.88;;;12.76;100.00
1207;BME280;593;53.184;8.216;2023-11-19T10:32:18;100114.06;;;12.76;100.00
1207;BME280;593;53.184;8.216;2023-11-19T10:34:44;100108.63;;;12.76;100.00
1207;BME280;593;53.184;8.216;2023-11-19T10:37:37;100102.34;;;12.76;100.00
1207;BME280;593;53.184;8.216;2023-11-19T10:40:03;100111.03;;;12.78;100.00
1207;BME280;593;53.184;8.216;2023-11-19T10:42:30;100105.56;;;12.78;100.00
1207;BME280;593;53.184;8.216;2023-11-19T10:44:56;100109.09;;;12.78;100.00
1207;BME280;593;53.184;8.216;2023-11-19T10:47:22;100115.06;;;12.80;100.00
1207;BME280;593;53.184;8.216;2023-11-19T10:49:48;100110.41;;;12.81;100.00
1207;BME280;593;53.184;8.216;2023-11-19T10:52:18;100110.13;;;12.82;100.00
1207;BME280;593;53.184;8.216;2023-11-19T10:54:49;100119.91;;;12.83;100.00
1207;BME280;593;53.184;8.216;2023-11-19T10:57:20;100108.16;;;12.83;100.00
1207;BME280;593;53.184;8.216;2023-11-19T10:59:47;100121.53;;;12.84;100.00
1207;BME280;593;53.184;8.216;2023-11-19T11:02:16;100113.00;;;12.86;100.00
1207;BME280;593;53.184;8.216;2023-11-19T11:04:44;100113.00;;;12.86;100.00
1207;BME280;593;53.184;8.216;2023-11-19T11:07:12;100106.13;;;12.88;100.00
1207;BME280;593;53.184;8.216;2023-11-19T11:09:38;100099.84;;;12.88;100.00
1207;BME280;593;53.184;8.216;2023-11-19T11:12:06;100099.56;;;12.90;100.00
1207;BME280;593;53.184;8.216;2023-11-19T11:14:32;100108.56;;;12.90;100.00
1207;BME280;593;53.184;8.216;2023-11-19T11:17:02;100102.78;;;12.92;100.00
1207;BME280;593;53.184;8.216;2023-11-19T11:19:28;100102.78;;;12.92;100.00
1207;BME280;593;53.184;8.216;2023-11-19T11:21:54;100098.75;;;12.89;100.00
1207;BME280;593;53.184;8.216;2023-11-19T11:35:12;100100.22;;;12.95;100.00
1207;BME280;593;53.184;8.216;2023-11-19T11:37:50;100098.28;;;12.96;100.00
1207;BME280;593;53.184;8.216;2023-11-19T11:40:18;100093.97;;;12.95;100.00
1207;BME280;593;53.184;8.216;2023-11-19T11:42:44;100100.22;;;12.95;100.00
1207;BME280;593;53.184;8.216;2023-11-19T11:45:11;100098.00;;;12.97;100.00
1207;BME280;593;53.184;8.216;2023-11-19T11:53:13;100102.66;;;12.97;100.00
1207;BME280;593;53.184;8.216;2023-11-19T11:58:13;100101.03;;;12.96;100.00
1207;BME280;593;53.184;8.216;2023-11-19T12:00:41;100096.38;;;12.96;100.00
1207;BME280;593;53.184;8.216;2023-11-19T12:03:08;100099.91;;;12.97;100.00
1207;BME280;593;53.184;8.216;2023-11-19T12:05:39;100083.84;;;12.95;100.00
1207;BME280;593;53.184;8.216;2023-11-19T12:08:07;100096.06;;;12.98;100.00
1207;BME280;593;53.184;8.216;2023-11-19T12:10:50;100093.31;;;12.98;100.00
1207;BME280;593;53.184;8.216;2023-11-19T12:13:17;100095.28;;;12.97;100.00
1207;BME280;593;53.184;8.216;2023-11-19T12:18:26;100081.63;;;12.97;100.00
1207;BME280;593;53.184;8.216;2023-11-19T12:20:52;100093.31;;;12.98;100.00
1207;BME280;593;53.184;8.216;2023-11-19T12:23:18;100096.38;;;12.96;100.00
1207;BME280;593;53.184;8.216;2023-11-19T12:25:43;100088.50;;;12.95;100.00
1207;BME280;593;53.184;8.216;2023-11-19T12:28:16;100096.69;;;12.95;100.00
1207;BME280;593;53.184;8.216;2023-11-19T12:30:43;100094.75;;;12.95;100.00
1207;BME280;593;53.184;8.216;2023-11-19T12:33:09;100074.31;;;12.84;100.00
1207;BME280;593;53.184;8.216;2023-11-19T12:35:41;100092.34;;;12.94;100.00
1207;BME280;593;53.184;8.216;2023-11-19T12:38:08;100089.63;;;12.94;100.00
1207;BME280;593;53.184;8.216;2023-11-19T12:40:33;100088.00;;;12.93;100.00
1207;BME280;593;53.184;8.216;2023-11-19T12:42:59;100082.84;;;12.91;100.00
1207;BME280;593;53.184;8.216;2023-11-19T12:45:34;100073.56;;;12.92;100.00
1207;BME280;593;53.184;8.216;2023-11-19T12:48:09;100070.84;;;12.92;100.00
1207;BME280;593;53.184;8.216;2023-11-19T12:50:54;100068.09;;;12.92;100.00
1207;BME280;593;53.184;8.216;2023-11-19T12:53:22;100063.44;;;12.93;100.00
1207;BME280;593;53.184;8.216;2023-11-19T12:55:48;100059.91;;;12.92;100.00
1207;BME280;593;53.184;8.216;2023-11-19T12:58:33;100055.56;;;12.91;100.00
1207;BME280;593;53.184;8.216;2023-11-19T13:01:06;100064.56;;;12.92;100.00
1207;BME280;593;53.184;8.216;2023-11-19T13:03:33;100059.59;;;12.94;100.00
1207;BME280;593;53.184;8.216;2023-11-19T13:06:06;100060.69;;;12.93;100.00
1207;BME280;593;53.184;8.216;2023-11-19T13:08:42;100062.31;;;12.94;100.00
1207;BME280;593;53.184;8.216;2023-11-19T13:11:10;100055.75;;;12.95;100.00
1207;BME280;593;53.184;8.216;2023-11-19T13:13:58;100058.47;;;12.95;100.00
1207;BME280;593;53.184;8.216;2023-11-19T13:16:25;100060.41;;;12.94;100.00
1207;BME280;593;53.184;8.216;2023-11-19T13:18:51;100066.34;;;12.96;100.00
1207;BME280;593;53.184;8.216;2023-11-19T13:21:16;100059.09;;;12.92;100.00
1207;BME280;593;53.184;8.216;2023-11-19T13:23:42;100063.28;;;12.98;100.00
1207;BME280;593;53.184;8.216;2023-11-19T13:26:08;100063.28;;;12.98;100.00
1207;BME280;593;53.184;8.216;2023-11-19T13:28:34;100065.25;;;12.97;100.00
1207;BME280;593;53.184;8.216;2023-11-19T13:30:59;100067.97;;;12.97;100.00
1207;BME280;593;53.184;8.216;2023-11-19T13:33:25;100069.28;;;13.00;100.00
1207;BME280;593;53.184;8.216;2023-11-19T13:35:51;100069.28;;;13.00;100.00